Terminal Aerodrome Forecast
Issued by NWS Springfield, MO

Home | Current Version | Previous Version | Text Only | Print | Product List | Glossary On
Versions: 1 2 3 4 5 6 7 8 9 10 11 12 13 14 15 16 17 18 19 20 21 22 23 24 25
114
FTUS43 KSGF 191128
TAFSGF
TAF
KSGF 191128Z 1912/2012 18015G25KT P6SM -SHRA VCTS SCT025 OVC050CB
      WS020/21050KT
      TEMPO 1912/1916 19026G35KT 3SM TSRA BR BKN025 OVC050CB
     FM191800 19024G34KT P6SM OVC050
      TEMPO 1918/1922 5SM -SHRA BR BKN025 OVC050
     FM200100 18020G26KT P6SM -SHRA SCT015 OVC025 WS020/20045KT=

USA.gov is the U.S. government's official web portal to all federal, state and local government web resources and services.